Time;durP1;ratioP1;P1;durP2;ratioP2;P2;SDS_P1;SDS_P2;PMS_P1;PMS_P2;Temp;Humidity;BMP_temperature;BMP_pressure;BME280_temperature;BME280_humidity;BME280_pressure;Samples;Min_cycle;Max_cycle;Signal;HPM_P1;HPM_P2
2023/10/24 00:00:51;;;;;;;14.90;7.30;;;;;;;10.88;100.00;100180.63;5050611;28;20028;-73
2023/10/24 00:03:16;;;;;;;16.20;8.10;;;;;;;10.88;100.00;100180.63;5050312;28;20124;-73
2023/10/24 00:05:42;;;;;;;18.30;7.65;;;;;;;10.89;100.00;100173.44;5032220;28;20036;-73
2023/10/24 00:08:07;;;;;;;18.95;8.60;;;;;;;10.89;100.00;100165.44;5050252;28;20452;-73
2023/10/24 00:10:34;;;;;;;20.45;8.45;;;;;;;10.86;100.00;100160.53;5032316;28;20037;-73
2023/10/24 00:13:14;;;;;;;16.15;7.68;;;;;;;10.87;100.00;100162.16;5022502;28;20057;-73
2023/10/24 00:15:39;;;;;;;14.30;7.63;;;;;;;10.90;100.00;100164.44;5050482;28;20037;-73
2023/10/24 00:18:05;;;;;;;17.27;7.97;;;;;;;10.92;100.00;100165.81;5032191;28;20111;-73
2023/10/24 00:20:30;;;;;;;15.02;7.47;;;;;;;10.92;100.00;100165.00;5060398;28;20033;-73
2023/10/24 00:22:56;;;;;;;15.48;6.97;;;;;;;10.93;100.00;100159.47;5069175;28;20025;-73
2023/10/24 00:25:21;;;;;;;25.40;8.70;;;;;;;10.94;100.00;100169.09;5069023;28;20430;-72
2023/10/24 00:27:46;;;;;;;18.65;8.32;;;;;;;10.95;100.00;100156.56;5051182;28;20063;-73
2023/10/24 00:30:12;;;;;;;20.60;9.48;;;;;;;10.93;100.00;100153.31;5051043;28;20082;-73
2023/10/24 00:32:37;;;;;;;13.02;7.25;;;;;;;10.94;100.00;100157.59;5068980;28;20083;-73
2023/10/24 00:35:03;;;;;;;16.17;7.00;;;;;;;10.92;100.00;100151.66;5069071;28;20086;-73
2023/10/24 00:37:29;;;;;;;18.92;8.43;;;;;;;10.96;100.00;100155.56;5069208;28;20936;-73
2023/10/24 00:39:54;;;;;;;14.82;6.93;;;;;;;10.96;100.00;100159.03;5068884;28;20111;-73
2023/10/24 00:42:20;;;;;;;14.35;7.25;;;;;;;10.96;100.00;100159.03;5068951;28;20028;-73
2023/10/24 00:44:47;;;;;;;22.48;9.55;;;;;;;10.97;100.00;100160.66;5068899;28;20028;-73
2023/10/24 00:47:13;;;;;;;15.60;7.93;;;;;;;10.93;100.00;100158.66;5068728;28;20029;-73
2023/10/24 00:49:38;;;;;;;15.85;6.35;;;;;;;10.94;100.00;100154.94;5068799;28;20031;-73
2023/10/24 00:52:04;;;;;;;19.10;7.13;;;;;;;10.97;100.00;100160.66;5068892;28;20025;-73
2023/10/24 00:54:31;;;;;;;14.20;7.25;;;;;;;10.92;100.00;100162.34;5068761;28;20037;-73
2023/10/24 00:56:57;;;;;;;12.95;6.20;;;;;;;10.95;100.00;100160.06;5068634;28;20082;-73
2023/10/24 00:59:24;;;;;;;16.17;6.88;;;;;;;10.97;100.00;100170.50;5050512;28;20032;-74
2023/10/24 01:01:49;;;;;;;13.30;7.22;;;;;;;10.98;100.00;100166.81;5034078;28;20415;-73
2023/10/24 01:04:16;;;;;;;13.20;6.30;;;;;;;10.98;100.00;100169.50;5068488;28;20039;-73
2023/10/24 01:06:42;;;;;;;12.50;6.15;;;;;;;10.94;100.00;100165.63;5050714;28;20028;-74
2023/10/24 01:09:07;;;;;;;13.15;6.57;;;;;;;10.96;100.00;100169.69;5068585;28;20032;-73
2023/10/24 01:11:33;;;;;;;13.63;6.57;;;;;;;10.95;100.00;100164.56;5068725;28;20054;-73
2023/10/24 01:14:01;;;;;;;16.88;6.88;;;;;;;10.91;100.00;100164.19;5068561;28;20043;-74
2023/10/24 01:16:27;;;;;;;10.68;5.40;;;;;;;10.93;100.00;100158.66;5071516;28;20020;-73
2023/10/24 01:18:52;;;;;;;11.95;5.55;;;;;;;10.91;100.00;100164.19;5054500;28;20452;-73
2023/10/24 01:21:18;;;;;;;11.05;5.60;;;;;;;10.87;100.00;100159.50;5054165;28;20123;-73
2023/10/24 01:23:43;;;;;;;10.88;5.03;;;;;;;10.85;100.00;100151.72;5018599;28;20076;-73
2023/10/24 01:26:11;;;;;;;8.88;4.70;;;;;;;10.85;100.00;100157.06;5053306;28;20040;-73
2023/10/24 01:28:37;;;;;;;9.23;4.82;;;;;;;10.82;100.00;100154.00;5053112;28;20044;-73
2023/10/24 01:31:02;;;;;;;8.88;5.57;;;;;;;10.83;100.00;100168.97;5040456;28;20071;-73
2023/10/24 01:33:29;;;;;;;10.82;4.72;;;;;;;10.81;100.00;100169.19;5072382;28;20028;-73
2023/10/24 01:35:54;;;;;;;6.72;3.78;;;;;;;10.72;100.00;100155.28;5072324;28;20044;-73
2023/10/24 01:38:20;;;;;;;7.47;3.92;;;;;;;10.79;100.00;100165.09;5054020;28;20032;-73
2023/10/24 01:40:45;;;;;;;12.88;4.63;;;;;;;10.79;100.00;100167.75;5071965;28;20041;-73
2023/10/24 01:43:10;;;;;;;8.82;4.65;;;;;;;10.83;100.00;100169.78;5058719;28;20033;-74
2023/10/24 01:45:36;;;;;;;9.48;4.32;;;;;;;10.85;100.00;100173.06;5052882;28;20033;-73
2023/10/24 01:48:01;;;;;;;7.95;4.10;;;;;;;10.76;100.00;100153.00;5053017;28;20476;-74
2023/10/24 01:50:26;;;;;;;9.75;4.40;;;;;;;10.89;100.00;100158.25;5052957;28;20123;-74
2023/10/24 01:52:52;;;;;;;10.38;5.05;;;;;;;10.90;100.00;100159.91;5068826;28;20040;-73
2023/10/24 01:55:17;;;;;;;10.07;4.80;;;;;;;10.92;100.00;100163.16;5071893;28;20578;-73
2023/10/24 01:57:43;;;;;;;10.10;4.53;;;;;;;10.92;100.00;100157.81;5071940;28;20032;-73
2023/10/24 02:00:09;;;;;;;8.68;4.07;;;;;;;10.94;100.00;100165.63;5060669;28;20021;-73
2023/10/24 02:02:34;;;;;;;10.32;4.63;;;;;;;10.92;100.00;100149.81;5038953;28;20047;-73
2023/10/24 02:04:59;;;;;;;11.80;5.40;;;;;;;10.92;100.00;100149.81;5069232;28;20032;-73
2023/10/24 02:07:27;;;;;;;16.90;5.88;;;;;;;10.95;100.00;100161.91;5071676;28;20031;-73
2023/10/24 02:09:53;;;;;;;9.77;4.70;;;;;;;10.94;100.00;100158.41;5071603;28;20036;-73
2023/10/24 02:12:18;;;;;;;11.88;5.30;;;;;;;10.93;100.00;100156.00;5071289;28;20045;-74
2023/10/24 02:14:44;;;;;;;11.57;4.93;;;;;;;10.96;100.00;100156.38;5036783;28;20033;-74
2023/10/24 02:17:10;;;;;;;13.63;5.05;;;;;;;10.89;100.00;100147.56;5071315;28;20055;-73
2023/10/24 02:19:35;;;;;;;14.00;5.60;;;;;;;10.97;100.00;100159.84;5071513;28;20078;-74
2023/10/24 02:22:00;;;;;;;9.80;5.03;;;;;;;10.93;100.00;100156.00;5071533;28;20115;-74
2023/10/24 02:24:26;;;;;;;10.98;5.88;;;;;;;10.95;100.00;100154.75;5041305;28;20061;-74
2023/10/24 02:26:51;;;;;;;17.20;5.30;;;;;;;10.97;100.00;100152.66;5064742;28;20024;-74
2023/10/24 02:29:17;;;;;;;14.25;6.20;;;;;;;10.94;100.00;100144.28;5071390;28;20027;-74
2023/10/24 02:31:42;;;;;;;14.18;6.57;;;;;;;10.97;100.00;100152.66;5071258;28;20028;-74
2023/10/24 02:34:08;;;;;;;10.85;5.55;;;;;;;10.99;100.00;100168.44;5071092;28;20060;-74
2023/10/24 02:36:33;;;;;;;13.20;6.20;;;;;;;10.99;100.00;100164.97;5070939;28;20086;-74
2023/10/24 02:38:58;;;;;;;14.25;7.53;;;;;;;10.95;100.00;100160.06;5070903;28;20472;-74
2023/10/24 02:41:24;;;;;;;13.15;6.38;;;;;;;10.98;100.00;100172.16;5051536;28;20039;-74
2023/10/24 02:43:49;;;;;;;13.13;6.43;;;;;;;10.99;100.00;100167.66;5052575;28;20087;-74
2023/10/24 02:46:15;;;;;;;14.93;6.20;;;;;;;10.97;100.00;100175.84;5071163;28;20059;-74
2023/10/24 02:48:40;;;;;;;11.43;5.43;;;;;;;10.96;100.00;100172.38;5071010;28;20062;-74
2023/10/24 02:51:06;;;;;;;10.40;4.38;;;;;;;10.94;100.00;100168.28;5070868;28;20043;-74
2023/10/24 02:53:31;;;;;;;9.45;4.75;;;;;;;10.95;100.00;100164.56;5070705;28;20036;-74
2023/10/24 02:56:01;;;;;;;11.93;6.05;;;;;;;10.98;100.00;100180.16;5061850;28;20587;-74
2023/10/24 02:58:26;;;;;;;9.55;4.80;;;;;;;10.90;100.00;100175.09;5051534;28;20505;-74
2023/10/24 03:00:52;;;;;;;8.10;3.97;;;;;;;10.97;100.00;100189.19;5070632;28;20020;-74
2023/10/24 03:03:17;;;;;;;6.38;3.38;;;;;;;10.97;100.00;100190.00;5070594;28;20538;-74
2023/10/24 03:05:43;;;;;;;9.82;5.70;;;;;;;10.96;100.00;100183.03;5052525;28;20029;-74
2023/10/24 03:08:08;;;;;;;6.25;3.40;;;;;;;10.88;100.00;100174.50;5051368;28;20119;-74
2023/10/24 03:10:41;;;;;;;7.28;3.60;;;;;;;10.96;100.00;100190.22;5067774;28;20038;-74
2023/10/24 03:13:07;;;;;;;5.95;3.08;;;;;;;10.95;100.00;100185.91;5070366;28;20542;-74
2023/10/24 03:15:34;;;;;;;7.40;3.42;;;;;;;10.95;100.00;100188.56;5070724;28;20064;-74
2023/10/24 03:18:00;;;;;;;6.50;4.15;;;;;;;10.94;100.00;100189.63;5052249;28;20120;-74
2023/10/24 03:20:26;;;;;;;6.75;3.83;;;;;;;10.90;100.00;100186.59;5070382;28;20070;-74
2023/10/24 03:22:51;;;;;;;7.25;3.05;;;;;;;10.92;100.00;100189.00;5035870;28;20105;-74
2023/10/24 03:25:17;;;;;;;5.60;3.17;;;;;;;10.93;100.00;100188.81;5058268;28;20123;-74
2023/10/24 03:27:42;;;;;;;9.35;3.42;;;;;;;10.93;100.00;100194.16;5051087;28;20480;-74
2023/10/24 03:30:08;;;;;;;8.32;3.25;;;;;;;10.93;100.00;100191.47;5034552;28;20079;-74
2023/10/24 03:32:33;;;;;;;8.38;3.70;;;;;;;10.94;100.00;100200.31;5070073;28;20040;-75
2023/10/24 03:34:58;;;;;;;5.90;3.15;;;;;;;10.93;100.00;100196.81;5067913;28;20380;-74
2023/10/24 03:37:24;;;;;;;6.70;3.88;;;;;;;10.92;100.00;100197.03;5032600;28;20122;-75
2023/10/24 03:39:49;;;;;;;7.90;3.90;;;;;;;10.86;100.00;100177.34;5050533;28;20100;-74
2023/10/24 03:42:15;;;;;;;7.65;3.72;;;;;;;10.94;100.00;100189.63;5032823;28;20037;-75
2023/10/24 03:44:41;;;;;;;7.75;3.70;;;;;;;10.91;100.00;100193.53;5050639;28;20040;-75
2023/10/24 03:47:06;;;;;;;6.13;2.92;;;;;;;10.89;100.00;100189.44;5050543;28;20037;-74
2023/10/24 03:49:31;;;;;;;7.75;4.45;;;;;;;10.91;100.00;100192.72;5050682;28;20033;-74
2023/10/24 03:51:57;;;;;;;8.88;4.00;;;;;;;10.91;100.00;100187.41;5059867;28;20501;-74
2023/10/24 03:54:22;;;;;;;6.90;2.78;;;;;;;10.83;100.00;100177.78;5069759;28;20039;-74
2023/10/24 03:56:48;;;;;;;8.15;3.35;;;;;;;10.85;100.00;100182.94;5051543;28;20028;-74
2023/10/24 03:59:13;;;;;;;8.40;3.70;;;;;;;10.90;100.00;100185.78;5069370;28;20028;-75
2023/10/24 04:01:38;;;;;;;6.32;3.20;;;;;;;10.88;100.00;100193.16;5055339;28;20120;-74
2023/10/24 04:04:04;;;;;;;7.70;4.13;;;;;;;10.90;100.00;100205.25;5032749;28;20490;-75
2023/10/24 04:06:30;;;;;;;8.82;4.20;;;;;;;10.90;100.00;100197.25;5064801;28;20383;-74
2023/10/24 04:09:00;;;;;;;8.00;4.15;;;;;;;10.90;100.00;100197.25;5069339;28;20025;-75
2023/10/24 04:11:25;;;;;;;6.45;3.42;;;;;;;10.92;100.00;100199.69;5051121;28;20129;-74
2023/10/24 04:13:50;;;;;;;8.18;4.45;;;;;;;10.88;100.00;100193.97;5067587;28;20070;-74
2023/10/24 04:16:16;;;;;;;9.02;4.10;;;;;;;10.90;100.00;100196.44;5051429;28;20044;-75
2023/10/24 04:18:41;;;;;;;3.97;2.67;;;;;;;10.91;100.00;100192.72;5064174;28;20701;-74
2023/10/24 04:21:07;;;;;;;8.00;4.22;;;;;;;10.88;100.00;100183.31;5038474;28;20044;-75
2023/10/24 04:23:32;;;;;;;6.53;3.35;;;;;;;10.91;100.00;100187.41;5050122;28;20634;-74
2023/10/24 04:25:57;;;;;;;6.95;3.35;;;;;;;10.82;100.00;100165.50;5049869;28;20041;-74
2023/10/24 04:28:23;;;;;;;7.43;3.35;;;;;;;10.89;100.00;100171.59;5049940;28;20032;-74
2023/10/24 04:30:51;;;;;;;10.55;3.97;;;;;;;10.88;100.00;100164.63;5032025;28;20120;-74
2023/10/24 04:33:16;;;;;;;8.25;3.60;;;;;;;10.90;100.00;100167.09;5049861;28;20048;-74
2023/10/24 04:35:47;;;;;;;6.63;3.42;;;;;;;10.85;100.00;100162.41;5061131;28;20432;-74
2023/10/24 04:38:13;;;;;;;6.78;3.88;;;;;;;10.84;100.00;100158.06;5037353;28;20044;-74
2023/10/24 04:40:39;;;;;;;8.27;3.90;;;;;;;10.84;100.00;100158.06;5056059;28;20392;-74
2023/10/24 04:43:08;;;;;;;9.30;3.63;;;;;;;10.86;100.00;100165.88;5056938;28;20894;-74
2023/10/24 04:45:35;;;;;;;5.32;3.22;;;;;;;10.87;100.00;100157.66;5059526;28;20057;-74
2023/10/24 04:48:05;;;;;;;6.25;3.30;;;;;;;10.84;100.00;100155.41;5040171;28;20028;-74
2023/10/24 04:50:31;;;;;;;7.78;4.45;;;;;;;10.85;100.00;100161.59;5068175;28;20070;-74
2023/10/24 04:52:57;;;;;;;6.80;3.88;;;;;;;10.82;100.00;100156.66;5068952;28;20032;-75
2023/10/24 04:55:23;;;;;;;7.10;2.92;;;;;;;10.84;100.00;100167.94;5051011;28;20032;-74
2023/10/24 04:57:49;;;;;;;5.43;3.90;;;;;;;10.82;100.00;100168.16;5054814;28;20487;-74
2023/10/24 05:00:15;;;;;;;7.68;3.70;;;;;;;10.83;100.00;100171.66;5061074;28;20068;-74
2023/10/24 05:02:42;;;;;;;6.35;3.05;;;;;;;10.80;100.00;100170.22;5049290;28;20365;-74
2023/10/24 05:05:08;;;;;;;7.97;3.85;;;;;;;10.75;100.00;100162.06;5049498;28;20029;-74
2023/10/24 05:07:33;;;;;;;6.45;3.38;;;;;;;10.79;100.00;100173.91;5049337;28;20072;-75
2023/10/24 05:09:58;;;;;;;8.70;3.70;;;;;;;10.76;100.00;100174.34;5049475;28;20025;-74
2023/10/24 05:12:24;;;;;;;6.07;3.33;;;;;;;10.76;100.00;100177.00;5039944;28;20071;-74
2023/10/24 05:14:50;;;;;;;6.38;3.50;;;;;;;10.78;100.00;100184.81;5063383;28;20480;-74
2023/10/24 05:17:15;;;;;;;7.70;3.47;;;;;;;10.77;100.00;100181.34;5049190;28;20036;-74
2023/10/24 05:19:44;;;;;;;8.20;3.72;;;;;;;10.74;100.00;100173.72;5049334;28;20047;-74
2023/10/24 05:22:10;;;;;;;5.65;3.35;;;;;;;10.74;100.00;100181.72;5049294;28;20025;-74
2023/10/24 05:24:37;;;;;;;5.35;3.67;;;;;;;10.65;100.00;100167.03;5031319;28;20029;-74
2023/10/24 05:27:03;;;;;;;5.88;2.92;;;;;;;10.71;100.00;100174.97;5049373;28;20033;-74
2023/10/24 05:29:28;;;;;;;4.53;2.70;;;;;;;10.68;100.00;100166.59;5068713;28;20028;-74
2023/10/24 05:31:54;;;;;;;5.32;3.22;;;;;;;10.72;100.00;100181.97;5068427;28;20376;-74
2023/10/24 05:34:19;;;;;;;4.32;2.55;;;;;;;10.72;100.00;100173.97;5050408;28;20031;-74
2023/10/24 05:36:45;;;;;;;3.80;2.45;;;;;;;10.73;100.00;100164.09;5050260;28;20032;-74
2023/10/24 05:39:10;;;;;;;3.95;2.50;;;;;;;10.73;100.00;100156.09;5068177;28;20032;-74
2023/10/24 05:41:35;;;;;;;4.47;2.38;;;;;;;10.64;100.00;100134.22;5048657;28;20042;-74
2023/10/24 05:44:01;;;;;;;6.20;2.90;;;;;;;10.74;100.00;100149.72;5049117;28;20033;-74
2023/10/24 05:46:26;;;;;;;7.22;3.20;;;;;;;10.72;100.00;100149.97;5058686;28;20127;-74
2023/10/24 05:48:53;;;;;;;5.18;2.75;;;;;;;10.72;100.00;100157.16;5031658;28;20031;-74
2023/10/24 05:51:23;;;;;;;5.43;2.65;;;;;;;10.70;100.00;100148.53;5048941;28;20037;-74
2023/10/24 05:53:49;;;;;;;6.22;2.90;;;;;;;10.70;100.00;100151.22;5048879;28;20043;-74
2023/10/24 05:56:15;;;;;;;7.68;3.72;;;;;;;10.71;100.00;100155.50;5030952;28;20452;-74
2023/10/24 05:58:40;;;;;;;11.27;4.53;;;;;;;10.67;100.00;100159.63;5031138;28;20128;-74
2023/10/24 06:01:07;;;;;;;8.40;4.20;;;;;;;10.69;100.00;100160.25;5049577;28;20057;-74
2023/10/24 06:03:32;;;;;;;6.38;3.00;;;;;;;10.68;100.00;100167.41;5052584;28;20063;-74
2023/10/24 06:05:58;;;;;;;5.63;2.85;;;;;;;10.68;100.00;100171.94;5066697;28;20480;-74
2023/10/24 06:08:23;;;;;;;7.07;3.25;;;;;;;10.67;100.00;100184.44;5034516;28;20500;-74
2023/10/24 06:10:55;;;;;;;5.13;2.72;;;;;;;10.67;100.00;100187.13;5052415;28;20491;-74
2023/10/24 06:13:21;;;;;;;5.97;2.95;;;;;;;10.64;100.00;100187.56;5052431;28;20057;-74
2023/10/24 06:15:46;;;;;;;7.28;2.78;;;;;;;10.66;100.00;100187.31;5062539;28;20125;-74
2023/10/24 06:18:12;;;;;;;6.25;2.33;;;;;;;10.66;100.00;100179.31;5053365;28;20116;-75
2023/10/24 06:20:38;;;;;;;4.40;2.65;;;;;;;10.58;100.00;100161.72;5071176;28;20032;-74
2023/10/24 06:23:05;;;;;;;4.80;2.33;;;;;;;10.58;100.00;100155.56;5055914;28;20021;-74
2023/10/24 06:25:44;;;;;;;3.33;2.33;;;;;;;10.56;100.00;100141.63;5034407;28;20032;-75
2023/10/24 06:28:10;;;;;;;3.97;2.47;;;;;;;10.52;100.00;100147.41;5070474;28;20489;-75
2023/10/24 06:30:35;;;;;;;5.80;3.25;;;;;;;10.40;100.00;100141.13;5052831;28;20032;-75
2023/10/24 06:33:02;;;;;;;3.58;2.42;;;;;;;10.49;100.00;100165.69;5033122;28;20051;-74
2023/10/24 06:35:27;;;;;;;8.32;2.40;;;;;;;10.53;100.00;100180.22;5062175;28;20389;-75
2023/10/24 06:37:53;;;;;;;4.88;2.55;;;;;;;10.50;100.00;100175.31;5070076;28;20067;-75
2023/10/24 06:40:18;;;;;;;4.53;2.13;;;;;;;10.53;100.00;100185.53;5064689;28;20143;-75
2023/10/24 06:42:46;;;;;;;5.05;2.78;;;;;;;10.54;100.00;100189.84;5066162;28;20039;-75
2023/10/24 06:45:11;;;;;;;5.05;2.58;;;;;;;10.54;100.00;100192.53;5041400;28;20510;-75
2023/10/24 06:47:38;;;;;;;3.80;2.58;;;;;;;10.60;100.00;100189.00;5046687;28;20044;-75
2023/10/24 06:50:04;;;;;;;3.78;2.03;;;;;;;10.58;100.00;100190.25;5069488;28;20039;-75
2023/10/24 06:52:34;;;;;;;4.07;2.55;;;;;;;10.60;100.00;100198.84;5066132;28;20032;-75
2023/10/24 06:55:00;;;;;;;6.18;2.40;;;;;;;10.60;100.00;100193.53;5069568;28;20399;-75
2023/10/24 06:57:26;;;;;;;5.45;2.75;;;;;;;10.62;100.00;100194.13;5069998;28;20119;-74
2023/10/24 06:59:51;;;;;;;5.47;2.80;;;;;;;10.53;100.00;100177.53;5040108;28;20025;-75
2023/10/24 07:02:17;;;;;;;3.78;2.50;;;;;;;10.63;100.00;100191.22;5052123;28;20040;-75
2023/10/24 07:04:42;;;;;;;3.85;2.47;;;;;;;10.65;100.00;100183.84;5067350;28;20028;-75
2023/10/24 07:07:08;;;;;;;4.07;2.85;;;;;;;10.61;100.00;100182.66;5065190;28;20439;-75
2023/10/24 07:09:33;;;;;;;3.70;2.90;;;;;;;10.66;100.00;100177.50;5067486;28;20029;-75
2023/10/24 07:11:59;;;;;;;5.00;3.33;;;;;;;10.61;100.00;100168.47;5050506;28;20431;-75
2023/10/24 07:14:24;;;;;;;5.07;3.22;;;;;;;10.69;100.00;100178.91;5029881;28;20067;-75
2023/10/24 07:16:51;;;;;;;6.28;3.38;;;;;;;10.59;100.00;100160.72;5058045;28;20882;-75
2023/10/24 07:19:17;;;;;;;6.22;3.30;;;;;;;10.70;100.00;100197.34;5062783;28;20051;-75
2023/10/24 07:21:43;;;;;;;5.97;3.30;;;;;;;10.67;100.00;100179.13;5050711;28;20045;-75
2023/10/24 07:24:09;;;;;;;5.45;3.25;;;;;;;10.69;100.00;100165.59;5041135;28;20036;-75
2023/10/24 07:26:34;;;;;;;6.47;3.42;;;;;;;10.71;100.00;100161.63;5055090;28;20941;-75
2023/10/24 07:29:00;;;;;;;10.18;4.35;;;;;;;10.74;100.00;100184.41;5035001;28;20060;-74
2023/10/24 07:31:26;;;;;;;6.43;3.30;;;;;;;10.78;100.00;100171.47;5059229;28;20025;-71
2023/10/24 07:33:51;;;;;;;7.40;3.65;;;;;;;10.80;100.00;100164.06;5048865;28;20075;-71
2023/10/24 07:36:16;;;;;;;9.20;3.67;;;;;;;10.83;100.00;100169.78;5013627;28;20463;-72
2023/10/24 07:38:42;;;;;;;7.43;3.50;;;;;;;10.84;100.00;100171.41;5048648;28;20028;-72
2023/10/24 07:41:08;;;;;;;7.80;4.05;;;;;;;10.87;100.00;100178.16;5048521;28;20048;-71
2023/10/24 07:43:33;;;;;;;8.30;4.30;;;;;;;10.90;100.00;100180.44;5056207;28;20135;-72
2023/10/24 07:45:59;;;;;;;9.40;4.45;;;;;;;10.91;100.00;100177.53;5031629;28;20060;-71
2023/10/24 07:48:24;;;;;;;9.40;4.72;;;;;;;10.90;100.00;100167.91;5067167;28;20107;-70
2023/10/24 07:50:53;;;;;;;10.25;5.35;;;;;;;10.94;100.00;100168.28;5047715;28;20036;-70
2023/10/24 07:53:20;;;;;;;9.05;4.85;;;;;;;10.94;100.00;100170.94;5050474;28;20029;-71
2023/10/24 07:55:46;;;;;;;9.13;4.55;;;;;;;10.97;100.00;100160.66;5062507;28;20032;-71
2023/10/24 07:58:11;;;;;;;10.32;5.63;;;;;;;11.01;100.00;100160.25;5069067;28;20360;-70
2023/10/24 08:00:36;;;;;;;12.32;5.32;;;;;;;11.06;100.00;100171.09;5069151;28;20104;-70
2023/10/24 08:03:02;;;;;;;11.70;6.03;;;;;;;11.06;100.00;100169.22;5060393;28;20033;-70
2023/10/24 08:05:27;;;;;;;10.10;6.13;;;;;;;11.09;100.00;100170.66;5050118;28;20020;-70
2023/10/24 08:07:52;;;;;;;12.55;6.28;;;;;;;11.14;100.00;100166.28;5051931;28;20473;-70
2023/10/24 08:10:18;;;;;;;13.20;6.72;;;;;;;11.20;100.00;100164.59;5032092;28;20056;-70
2023/10/24 08:12:43;;;;;;;12.45;5.65;;;;;;;11.28;100.00;100150.16;5051292;28;20057;-71
2023/10/24 08:15:09;;;;;;;14.82;6.40;;;;;;;11.33;100.00;100155.66;5038349;28;20056;-71
2023/10/24 08:17:34;;;;;;;14.13;6.45;;;;;;;11.44;100.00;100162.94;5032096;28;21051;-71
2023/10/24 08:19:59;;;;;;;14.10;6.28;;;;;;;11.53;100.00;100166.19;5049838;28;20037;-71
2023/10/24 08:22:25;;;;;;;13.05;5.80;;;;;;;11.68;100.00;100160.47;5032023;28;20957;-71
2023/10/24 08:24:50;;;;;;;9.90;4.95;;;;;;;11.81;100.00;100158.47;5045888;28;20543;-71
2023/10/24 08:27:15;;;;;;;12.68;5.32;;;;;;;11.91;100.00;100166.03;5068994;28;20032;-71
2023/10/24 08:29:41;;;;;;;10.88;5.40;;;;;;;11.95;100.00;100158.38;5068838;28;20113;-71
2023/10/24 08:32:07;;;;;;;11.48;5.72;;;;;;;11.98;100.00;100172.13;5068688;28;20222;-71
2023/10/24 08:34:36;;;;;;;10.70;5.32;;;;;;;11.96;100.00;100178.72;5068629;28;20622;-71
2023/10/24 08:37:05;;;;;;;11.88;5.95;;;;;;;11.97;100.00;100186.53;5050576;28;20103;-71
2023/10/24 08:39:30;;;;;;;11.52;6.05;;;;;;;12.00;100.00;100194.09;5068711;28;20032;-71
2023/10/24 08:41:59;;;;;;;12.93;6.05;;;;;;;12.02;100.00;100204.53;5050622;28;20447;-71
2023/10/24 08:44:26;;;;;;;11.90;5.38;;;;;;;12.07;100.00;100200.16;5037717;28;20090;-71
2023/10/24 08:46:53;;;;;;;12.75;6.30;;;;;;;12.14;100.00;100213.47;5049297;28;20033;-71
2023/10/24 08:49:18;;;;;;;13.20;6.00;;;;;;;12.20;100.00;100201.88;5056684;28;20033;-71
2023/10/24 08:51:45;;;;;;;12.98;5.10;;;;;;;12.28;100.00;100190.88;5067693;28;20040;-71
2023/10/24 08:54:10;;;;;;;9.13;4.82;;;;;;;12.38;100.00;100198.38;5048367;28;20555;-71
2023/10/24 08:56:37;;;;;;;8.63;5.28;;;;;;;12.31;100.00;100192.28;5049631;28;20119;-71
2023/10/24 08:59:04;;;;;;;10.45;4.88;;;;;;;12.25;100.00;100194.00;5049163;28;20065;-71
2023/10/24 09:01:31;;;;;;;8.82;5.30;;;;;;;12.28;100.00;100201.56;5037276;28;20040;-71
2023/10/24 09:03:57;;;;;;;10.30;5.35;;;;;;;12.26;100.00;100190.31;5031128;28;20123;-71
2023/10/24 09:06:23;;;;;;;10.65;5.20;;;;;;;12.37;100.00;100198.63;5034938;28;20032;-71
2023/10/24 09:08:49;;;;;;;9.05;4.80;;;;;;;12.39;100.00;100191.16;5051031;28;20102;-71
2023/10/24 09:11:15;;;;;;;7.57;4.65;;;;;;;12.39;100.00;100204.53;5037066;28;20036;-71
2023/10/24 09:13:41;;;;;;;9.38;5.13;;;;;;;12.33;100.00;100184.88;5049966;28;20063;-71
2023/10/24 09:16:08;;;;;;;9.43;4.38;;;;;;;12.34;100.00;100167.78;5067980;28;20040;-71
2023/10/24 09:18:35;;;;;;;7.78;4.28;;;;;;;12.43;100.00;100179.00;5068121;28;20037;-71
2023/10/24 09:21:01;;;;;;;9.73;5.03;;;;;;;12.47;100.00;100167.63;5060182;28;20508;-71
2023/10/24 09:23:26;;;;;;;7.93;5.07;;;;;;;12.52;100.00;100156.22;5048829;28;20033;-71
2023/10/24 09:25:53;;;;;;;9.18;4.75;;;;;;;12.59;100.00;100164.97;5053804;28;20037;-71
2023/10/24 09:28:21;;;;;;;8.65;5.13;;;;;;;12.60;100.00;100163.13;5055282;28;20037;-71
2023/10/24 09:30:47;;;;;;;11.27;6.03;;;;;;;12.57;100.00;100161.72;5049138;28;20068;-71
2023/10/24 09:33:12;;;;;;;9.05;5.35;;;;;;;12.55;100.00;100161.16;5049056;28;20119;-71
2023/10/24 09:35:38;;;;;;;8.30;3.85;;;;;;;12.55;100.00;100161.16;5054953;28;20024;-71
2023/10/24 09:38:07;;;;;;;12.30;5.90;;;;;;;12.50;100.00;100158.34;5072113;28;20035;-71
2023/10/24 09:40:35;;;;;;;9.30;4.75;;;;;;;12.48;100.00;100155.06;5070627;28;20060;-71
2023/10/24 09:43:08;;;;;;;12.15;4.63;;;;;;;12.59;100.00;100167.66;5072043;28;20047;-71
2023/10/24 09:45:34;;;;;;;10.00;5.32;;;;;;;12.62;100.00;100164.53;5071709;28;20055;-71
2023/10/24 09:48:01;;;;;;;8.68;5.13;;;;;;;12.65;100.00;100166.78;5043708;28;20063;-71
2023/10/24 09:50:26;;;;;;;10.02;4.28;;;;;;;12.73;100.00;100162.94;5071551;28;20056;-71
2023/10/24 09:52:52;;;;;;;8.60;5.85;;;;;;;12.75;100.00;100158.16;5071497;28;20431;-71
2023/10/24 09:55:19;;;;;;;10.40;6.10;;;;;;;12.79;100.00;100153.19;5071817;28;20025;-70
2023/10/24 09:57:47;;;;;;;8.63;4.60;;;;;;;12.82;100.00;100161.56;5055226;28;20128;-71
2023/10/24 10:00:13;;;;;;;10.80;5.38;;;;;;;12.79;100.00;100148.66;5052622;28;20032;-71
2023/10/24 10:02:41;;;;;;;7.82;4.68;;;;;;;12.79;100.00;100140.63;5052619;28;20488;-71
2023/10/24 10:05:07;;;;;;;8.13;3.97;;;;;;;12.77;100.00;100157.97;5058726;28;20103;-71
2023/10/24 10:07:33;;;;;;;11.25;6.07;;;;;;;12.78;100.00;100164.94;5048925;28;20108;-71
2023/10/24 10:10:01;;;;;;;8.30;4.47;;;;;;;12.76;100.00;100165.19;5052191;28;20457;-71
2023/10/24 10:12:28;;;;;;;9.32;4.70;;;;;;;12.79;100.00;100164.72;5056829;28;20061;-71
2023/10/24 10:15:17;;;;;;;7.53;4.47;;;;;;;12.80;100.00;100168.19;5052096;28;20040;-72
2023/10/24 10:17:46;;;;;;;11.75;4.13;;;;;;;12.82;100.00;100166.94;5052065;28;20135;-71
2023/10/24 10:20:22;;;;;;;9.18;4.38;;;;;;;12.80;100.00;100163.66;5051464;28;20028;-71
2023/10/24 10:23:06;;;;;;;8.40;3.90;;;;;;;12.85;100.00;100169.16;5051790;28;20052;-71
2023/10/24 10:25:49;;;;;;;12.88;5.55;;;;;;;12.84;100.00;100175.56;5051758;28;20025;-71
2023/10/24 10:28:17;;;;;;;8.77;4.45;;;;;;;12.83;100.00;100173.09;5033519;28;20028;-71
2023/10/24 10:30:52;;;;;;;8.20;4.75;;;;;;;12.81;100.00;100167.97;5040919;28;20210;-72
2023/10/24 10:33:22;;;;;;;5.28;3.97;;;;;;;12.81;100.00;100157.28;5055610;28;20029;-70
2023/10/24 10:36:02;;;;;;;7.55;4.60;;;;;;;12.83;100.00;100157.03;5031281;28;20033;-71
2023/10/24 10:38:49;;;;;;;9.30;3.88;;;;;;;12.84;100.00;100156.00;5049079;28;20201;-72
2023/10/24 10:41:23;;;;;;;9.30;5.15;;;;;;;12.84;100.00;100151.47;5049432;28;20503;-72
2023/10/24 10:43:50;;;;;;;8.55;4.50;;;;;;;12.83;100.00;100146.34;5049546;28;20108;-71
2023/10/24 10:46:16;;;;;;;8.18;4.75;;;;;;;12.79;100.00;100148.66;5031523;28;20068;-72
2023/10/24 10:48:43;;;;;;;7.78;4.22;;;;;;;12.74;100.00;100140.50;5047420;28;21123;-72
2023/10/24 10:51:12;;;;;;;9.02;4.03;;;;;;;12.72;100.00;100138.03;5055819;28;20037;-71
2023/10/24 10:54:18;;;;;;;8.13;4.45;;;;;;;12.74;100.00;100137.00;5055037;28;20081;-72
2023/10/24 10:56:46;;;;;;;8.48;5.07;;;;;;;12.67;100.00;100148.59;5057837;28;20226;-69
2023/10/24 10:59:31;;;;;;;9.55;5.53;;;;;;;12.64;100.00;100142.91;5057841;28;20032;-67
2023/10/24 11:02:14;;;;;;;8.70;4.43;;;;;;;12.59;100.00;100137.41;5055805;28;20491;-67
2023/10/24 11:04:40;;;;;;;7.82;4.32;;;;;;;12.54;100.00;100137.28;5054765;28;20035;-69
2023/10/24 11:07:06;;;;;;;7.00;4.15;;;;;;;12.48;100.00;100141.69;5068124;28;20040;-69
2023/10/24 11:09:36;;;;;;;8.02;4.47;;;;;;;12.42;100.00;100145.28;5050629;28;20055;-68
2023/10/24 11:12:20;;;;;;;8.85;4.45;;;;;;;12.40;100.00;100140.16;5052939;28;20064;-71